createdAt,value
2023-03-18T00:01:07.615Z,2.77
2023-03-18T00:03:37.423Z,3.00
2023-03-18T00:06:09.496Z,3.20
2023-03-18T00:08:39.418Z,3.10
2023-03-18T00:11:08.009Z,3.30
2023-03-18T00:13:36.098Z,3.70
2023-03-18T00:16:04.935Z,3.20
2023-03-18T00:18:34.375Z,3.30
2023-03-18T00:21:03.799Z,3.33
2023-03-18T00:23:34.489Z,3.30
2023-03-18T00:26:03.836Z,3.13
2023-03-18T00:28:32.653Z,3.70
2023-03-18T00:31:08.491Z,3.27
2023-03-18T00:33:37.952Z,3.60
2023-03-18T00:36:07.452Z,3.63
2023-03-18T00:38:36.978Z,3.43
2023-03-18T00:41:11.404Z,3.10
2023-03-18T00:43:46.113Z,3.30
2023-03-18T00:46:16.342Z,3.37
2023-03-18T00:48:44.955Z,3.37
2023-03-18T00:51:14.327Z,3.30
2023-03-18T00:53:44.981Z,3.43
2023-03-18T00:56:14.197Z,3.33
2023-03-18T00:58:42.411Z,3.10
2023-03-18T01:01:12.515Z,3.30
2023-03-18T01:03:42.987Z,2.73
2023-03-18T01:06:12.935Z,3.23
2023-03-18T01:08:42.990Z,3.20
2023-03-18T01:11:12.084Z,3.27
2023-03-18T01:13:40.753Z,3.43
2023-03-18T01:16:09.647Z,3.27
2023-03-18T01:18:38.932Z,3.40
2023-03-18T01:21:07.429Z,3.20
2023-03-18T01:23:39.709Z,3.63
2023-03-18T01:26:10.656Z,3.37
2023-03-18T01:28:42.342Z,3.40
2023-03-18T01:31:10.586Z,3.30
2023-03-18T01:33:40.278Z,3.40
2023-03-18T01:36:09.493Z,3.60
2023-03-18T01:38:37.649Z,3.27
2023-03-18T01:41:13.631Z,3.77
2023-03-18T01:43:43.994Z,3.23
2023-03-18T01:46:34.883Z,3.90
2023-03-18T01:49:06.281Z,3.60
2023-03-18T01:51:34.756Z,3.47
2023-03-18T01:54:06.031Z,3.60
2023-03-18T01:56:38.355Z,3.27
2023-03-18T01:59:07.909Z,3.37
2023-03-18T02:01:41.045Z,3.33
2023-03-18T02:04:11.409Z,3.80
2023-03-18T02:06:43.691Z,3.60
2023-03-18T02:09:12.922Z,3.93
2023-03-18T02:11:49.868Z,4.00
2023-03-18T02:14:23.740Z,3.73
2023-03-18T02:16:56.526Z,3.87
2023-03-18T02:19:37.867Z,4.03
2023-03-18T02:22:17.157Z,3.63
2023-03-18T02:24:56.366Z,3.67
2023-03-18T02:27:27.838Z,3.50
2023-03-18T02:30:00.374Z,4.30
2023-03-18T02:32:33.556Z,3.80
2023-03-18T02:35:08.191Z,3.90
2023-03-18T02:37:38.472Z,4.17
2023-03-18T02:40:15.346Z,4.10
2023-03-18T02:42:45.929Z,5.07
2023-03-18T02:45:29.927Z,4.50
2023-03-18T02:48:18.723Z,4.37
2023-03-18T02:50:47.462Z,4.40
2023-03-18T02:53:16.244Z,3.97
2023-03-18T02:55:45.011Z,4.57
2023-03-18T02:58:14.491Z,4.70
2023-03-18T03:00:45.609Z,4.97
2023-03-18T03:03:13.750Z,4.53
2023-03-18T03:05:42.000Z,4.53
2023-03-18T03:08:10.455Z,4.50
2023-03-18T03:10:42.397Z,3.93
2023-03-18T03:13:11.592Z,4.30
2023-03-18T03:15:42.821Z,4.23
2023-03-18T03:18:11.522Z,4.37
2023-03-18T03:20:39.703Z,4.63
2023-03-18T03:23:10.030Z,4.90
2023-03-18T03:25:38.428Z,4.33
2023-03-18T03:28:07.264Z,5.17
2023-03-18T03:30:36.626Z,4.60
2023-03-18T03:33:06.851Z,4.70
2023-03-18T03:35:35.834Z,4.37
2023-03-18T03:38:04.163Z,4.30
2023-03-18T03:40:32.859Z,4.23
2023-03-18T03:43:01.152Z,4.67
2023-03-18T03:45:29.660Z,5.33
2023-03-18T03:47:57.808Z,5.10
2023-03-18T03:50:27.563Z,5.30
2023-03-18T03:52:55.968Z,5.07
2023-03-18T03:55:25.144Z,5.30
2023-03-18T03:57:56.441Z,5.37
2023-03-18T04:00:26.126Z,5.70
2023-03-18T04:02:54.750Z,5.33
2023-03-18T04:05:25.594Z,6.13
2023-03-18T04:07:59.860Z,5.23
2023-03-18T04:10:38.846Z,5.53
2023-03-18T04:13:10.239Z,5.57
2023-03-18T04:15:39.043Z,5.83
2023-03-18T04:18:16.949Z,6.00
2023-03-18T04:20:46.249Z,6.03
2023-03-18T04:23:33.081Z,5.47
2023-03-18T04:26:01.522Z,6.00
2023-03-18T04:28:29.548Z,5.30
2023-03-18T04:30:58.324Z,6.07
2023-03-18T04:33:26.597Z,6.03
2023-03-18T04:35:54.784Z,5.80
2023-03-18T04:38:22.878Z,5.53
2023-03-18T04:40:54.267Z,5.67
2023-03-18T04:43:22.813Z,6.13
2023-03-18T04:45:52.881Z,6.03
2023-03-18T04:48:22.388Z,6.10
2023-03-18T04:50:50.623Z,6.43
2023-03-18T04:53:26.258Z,6.30
2023-03-18T04:55:56.940Z,6.43
2023-03-18T04:58:31.086Z,6.17
2023-03-18T05:01:10.124Z,6.30
2023-03-18T05:03:39.610Z,6.73
2023-03-18T05:06:09.364Z,6.97
2023-03-18T05:08:51.377Z,6.70
2023-03-18T05:11:21.018Z,6.70
2023-03-18T05:13:49.536Z,7.00
2023-03-18T05:16:20.157Z,6.90
2023-03-18T05:18:50.174Z,7.40
2023-03-18T05:21:18.370Z,7.93
2023-03-18T05:23:46.458Z,7.03
2023-03-18T05:26:17.322Z,7.70
2023-03-18T05:28:49.010Z,7.13
2023-03-18T05:31:25.802Z,7.60
2023-03-18T05:33:54.082Z,7.00
2023-03-18T05:36:23.297Z,7.37
2023-03-18T05:39:01.027Z,7.20
2023-03-18T05:41:29.412Z,7.13
2023-03-18T05:43:59.383Z,7.03
2023-03-18T05:46:29.005Z,7.23
2023-03-18T05:49:20.165Z,8.00
2023-03-18T05:52:11.595Z,7.70
2023-03-18T05:54:44.694Z,8.53
2023-03-18T05:57:16.363Z,8.20
2023-03-18T05:59:46.470Z,8.40
2023-03-18T06:02:14.696Z,8.03
2023-03-18T06:04:42.841Z,7.83
2023-03-18T06:07:12.183Z,8.83
2023-03-18T06:09:40.970Z,9.07
2023-03-18T06:12:09.649Z,8.30
2023-03-18T06:14:37.781Z,8.20
2023-03-18T06:17:09.486Z,8.67
2023-03-18T06:19:38.263Z,9.27
2023-03-18T06:22:06.358Z,8.73
2023-03-18T06:24:34.448Z,9.30
2023-03-18T06:27:02.519Z,8.50
2023-03-18T06:29:31.636Z,8.77
2023-03-18T06:32:10.051Z,9.20
2023-03-18T06:34:38.946Z,8.83
2023-03-18T06:37:07.865Z,10.10
2023-03-18T06:39:36.668Z,8.90
2023-03-18T06:42:08.569Z,8.83
2023-03-18T06:44:42.057Z,8.87
2023-03-18T06:47:18.876Z,8.50
2023-03-18T06:49:53.798Z,9.07
2023-03-18T06:52:28.740Z,8.90
2023-03-18T06:55:01.909Z,10.10
2023-03-18T06:57:30.091Z,8.57
2023-03-18T06:59:58.407Z,8.43
2023-03-18T07:02:28.355Z,9.17
2023-03-18T07:05:00.150Z,8.60
2023-03-18T07:07:30.816Z,8.20
2023-03-18T07:09:59.144Z,9.57
2023-03-18T07:12:28.523Z,7.50
2023-03-18T07:14:56.819Z,9.17
2023-03-18T07:17:25.329Z,8.27
2023-03-18T07:19:54.763Z,8.23
2023-03-18T07:22:23.245Z,8.40
2023-03-18T07:24:52.451Z,8.87
2023-03-18T07:27:20.615Z,8.37
2023-03-18T07:29:48.679Z,7.87
2023-03-18T07:32:16.951Z,9.43
2023-03-18T07:34:44.943Z,8.13
2023-03-18T07:37:14.821Z,9.20
2023-03-18T07:39:43.478Z,8.77
2023-03-18T07:42:12.171Z,8.73
2023-03-18T07:44:46.829Z,8.60
2023-03-18T07:47:15.623Z,8.70
2023-03-18T07:49:44.258Z,9.63
2023-03-18T07:52:13.772Z,9.60
2023-03-18T07:54:41.909Z,9.00
2023-03-18T07:57:10.500Z,8.87
2023-03-18T07:59:38.930Z,8.90
2023-03-18T08:02:08.262Z,9.00
2023-03-18T08:04:36.572Z,9.60
2023-03-18T08:07:04.695Z,9.50
2023-03-18T08:09:34.265Z,9.07
2023-03-18T08:12:02.284Z,9.30
2023-03-18T08:14:30.319Z,9.30
2023-03-18T08:17:01.591Z,9.03
2023-03-18T08:19:29.749Z,9.20
2023-03-18T08:21:57.795Z,9.43
2023-03-18T08:24:26.564Z,9.00
2023-03-18T08:26:56.702Z,9.30
2023-03-18T08:29:24.762Z,10.03
2023-03-18T08:31:52.861Z,9.33
2023-03-18T08:34:20.913Z,9.63
2023-03-18T08:36:49.433Z,9.77
2023-03-18T08:39:17.887Z,9.67
2023-03-18T08:41:45.976Z,10.67
2023-03-18T08:44:15.517Z,10.70
2023-03-18T08:46:43.564Z,10.23
2023-03-18T08:49:12.387Z,9.97
2023-03-18T08:51:40.973Z,10.97
2023-03-18T08:54:09.241Z,10.47
2023-03-18T08:56:38.172Z,10.43
2023-03-18T08:59:07.037Z,10.90
2023-03-18T09:01:36.554Z,10.50
2023-03-18T09:04:04.929Z,11.43
2023-03-18T09:06:33.324Z,11.10
2023-03-18T09:09:01.500Z,11.37
2023-03-18T09:11:29.795Z,10.87
2023-03-18T09:13:58.129Z,11.53
2023-03-18T09:16:26.266Z,12.07
2023-03-18T09:18:56.165Z,11.73
2023-03-18T09:21:24.232Z,11.17
2023-03-18T09:23:52.786Z,10.93
2023-03-18T09:26:21.199Z,11.17
2023-03-18T09:28:49.317Z,11.77
2023-03-18T09:31:18.171Z,11.30
2023-03-18T09:33:47.033Z,11.90
2023-03-18T09:36:16.575Z,11.57
2023-03-18T09:38:44.646Z,11.13
2023-03-18T09:41:24.813Z,11.30
2023-03-18T09:44:04.333Z,11.47
2023-03-18T09:46:42.751Z,10.70
2023-03-18T09:49:34.172Z,11.67
2023-03-18T09:52:14.930Z,10.63
2023-03-18T09:54:48.429Z,12.10
2023-03-18T09:57:23.032Z,11.97
2023-03-18T09:59:55.380Z,12.07
2023-03-18T10:02:30.053Z,11.30
2023-03-18T10:05:01.884Z,12.30
2023-03-18T10:07:35.151Z,11.80
2023-03-18T10:10:07.999Z,11.97
2023-03-18T10:12:38.165Z,12.30
2023-03-18T10:15:14.781Z,11.43
2023-03-18T10:17:45.544Z,11.33
2023-03-18T10:20:33.933Z,11.57
2023-03-18T10:23:12.906Z,11.60
2023-03-18T10:25:44.732Z,11.10
2023-03-18T10:28:37.765Z,10.60
2023-03-18T10:31:17.910Z,10.23
2023-03-18T10:33:51.709Z,10.07
2023-03-18T10:36:23.386Z,9.23
2023-03-18T10:38:56.206Z,9.53
2023-03-18T10:41:28.782Z,10.23
2023-03-18T10:43:58.476Z,10.37
2023-03-18T10:46:28.333Z,9.00
2023-03-18T10:49:01.502Z,9.40
2023-03-18T10:51:33.426Z,9.23
2023-03-18T10:54:10.742Z,8.07
2023-03-18T10:56:39.111Z,8.40
2023-03-18T10:59:15.276Z,8.83
2023-03-18T11:01:46.011Z,8.67
2023-03-18T11:04:15.915Z,8.27
2023-03-18T11:06:48.411Z,7.97
2023-03-18T11:09:20.784Z,8.83
2023-03-18T11:11:49.853Z,8.20
2023-03-18T11:14:22.270Z,8.37
2023-03-18T11:16:57.949Z,8.27
2023-03-18T11:19:32.528Z,8.17
2023-03-18T11:22:20.548Z,7.90
2023-03-18T11:25:02.709Z,8.73
2023-03-18T11:27:38.490Z,8.37
2023-03-18T11:30:32.724Z,8.07
2023-03-18T11:33:07.183Z,7.37
2023-03-18T11:35:40.370Z,7.43
2023-03-18T11:38:16.208Z,6.80
2023-03-18T11:40:46.312Z,7.93
2023-03-18T11:43:19.524Z,6.83
2023-03-18T11:45:52.138Z,6.60
2023-03-18T11:48:30.334Z,6.63
2023-03-18T11:51:27.358Z,6.37
2023-03-18T11:54:15.279Z,6.00
2023-03-18T11:56:47.767Z,5.33
2023-03-18T11:59:33.492Z,5.97
2023-03-18T12:02:17.436Z,6.30
2023-03-18T12:05:08.147Z,5.73
2023-03-18T12:07:58.077Z,5.80
2023-03-18T12:10:32.708Z,6.57
2023-03-18T12:13:19.574Z,5.70
2023-03-18T12:15:55.829Z,5.90
2023-03-18T12:18:42.723Z,6.23
2023-03-18T12:21:26.969Z,6.33
2023-03-18T12:24:22.832Z,6.50
2023-03-18T12:26:59.633Z,6.57
2023-03-18T12:29:49.145Z,8.23
2023-03-18T12:32:27.338Z,7.17
2023-03-18T12:35:11.659Z,8.07
2023-03-18T12:37:52.441Z,9.50
2023-03-18T12:40:46.811Z,11.07
2023-03-18T12:43:40.192Z,11.33
2023-03-18T12:46:21.716Z,11.27
2023-03-18T12:48:53.809Z,11.40
2023-03-18T12:51:27.888Z,11.73
2023-03-18T12:53:59.879Z,11.33
2023-03-18T12:56:31.050Z,10.87
2023-03-18T12:59:09.376Z,10.83
2023-03-18T13:01:45.380Z,11.73
2023-03-18T13:04:17.298Z,11.63
2023-03-18T13:06:49.378Z,12.70
2023-03-18T13:09:26.542Z,12.53
2023-03-18T13:12:05.685Z,12.93
2023-03-18T13:14:44.620Z,14.37
2023-03-18T13:17:16.571Z,14.87
2023-03-18T13:19:45.827Z,14.63
2023-03-18T13:22:33.930Z,16.90
2023-03-18T13:25:12.951Z,14.87
2023-03-18T13:27:58.049Z,15.53
2023-03-18T13:30:35.876Z,16.07
2023-03-18T13:33:37.878Z,16.10
2023-03-18T13:36:28.608Z,15.60
2023-03-18T13:39:27.125Z,15.60
2023-03-18T13:42:13.893Z,16.70
2023-03-18T13:44:46.189Z,15.87
2023-03-18T13:47:19.126Z,16.93
2023-03-18T13:49:49.013Z,16.73
2023-03-18T13:52:27.124Z,15.83
2023-03-18T13:54:55.665Z,14.97
2023-03-18T13:57:43.514Z,15.70
2023-03-18T14:00:34.744Z,15.10
2023-03-18T14:03:29.931Z,16.73
2023-03-18T14:06:39.316Z,15.57
2023-03-18T14:09:33.313Z,16.90
2023-03-18T14:12:19.765Z,16.77
2023-03-18T14:15:08.113Z,17.13
2023-03-18T14:17:48.754Z,16.70
2023-03-18T14:20:27.228Z,17.00
2023-03-18T14:22:58.256Z,16.77
2023-03-18T14:25:42.034Z,18.90
2023-03-18T14:28:28.570Z,17.57
2023-03-18T14:31:22.182Z,19.63
2023-03-18T14:34:23.175Z,19.10
2023-03-18T14:37:29.474Z,17.57
2023-03-18T14:40:07.196Z,18.17
2023-03-18T14:42:56.537Z,16.97
2023-03-18T14:45:27.562Z,17.50
2023-03-18T14:47:57.646Z,18.03
2023-03-18T14:50:41.978Z,17.77
2023-03-18T14:53:20.198Z,16.80
2023-03-18T14:55:51.478Z,17.37
2023-03-18T14:58:21.646Z,16.23
2023-03-18T15:00:52.765Z,16.70
2023-03-18T15:03:24.880Z,15.40
2023-03-18T15:05:57.953Z,14.57
2023-03-18T15:08:37.458Z,15.63
2023-03-18T15:11:14.536Z,14.50
2023-03-18T15:13:43.575Z,15.93
2023-03-18T15:16:14.205Z,14.30
2023-03-18T15:18:43.585Z,15.23
2023-03-18T15:21:16.290Z,14.57
2023-03-18T15:23:49.732Z,13.03
2023-03-18T15:26:23.556Z,13.27
2023-03-18T15:28:57.118Z,15.33
2023-03-18T15:31:27.410Z,14.13
2023-03-18T15:34:13.371Z,13.67
2023-03-18T15:36:43.257Z,14.70
2023-03-18T15:39:22.482Z,15.20
2023-03-18T15:41:56.972Z,14.60
2023-03-18T15:44:28.657Z,14.77
2023-03-18T15:47:04.112Z,15.07
2023-03-18T15:49:33.226Z,15.00
2023-03-18T15:52:03.090Z,15.50
2023-03-18T15:54:39.205Z,13.43
2023-03-18T15:57:14.753Z,20.10
2023-03-18T15:59:45.094Z,22.43
2023-03-18T16:02:18.476Z,19.93
2023-03-18T16:04:48.353Z,16.37
2023-03-18T16:07:21.510Z,16.27
2023-03-18T16:09:51.266Z,16.67
2023-03-18T16:12:23.525Z,16.50
2023-03-18T16:14:53.010Z,15.17
2023-03-18T16:17:22.355Z,15.43
2023-03-18T16:19:54.339Z,16.73
2023-03-18T16:22:22.806Z,16.00
2023-03-18T16:24:51.031Z,19.23
2023-03-18T16:27:29.519Z,16.13
2023-03-18T16:29:57.677Z,17.50
2023-03-18T16:32:26.213Z,16.43
2023-03-18T16:34:54.842Z,18.13
2023-03-18T16:37:25.867Z,19.70
2023-03-18T16:39:55.890Z,19.60
2023-03-18T16:42:27.147Z,19.20
2023-03-18T16:44:55.938Z,14.33
2023-03-18T16:47:27.245Z,15.67
2023-03-18T16:49:56.410Z,14.63
2023-03-18T16:52:25.324Z,19.95
2023-03-18T16:54:53.426Z,18.80
2023-03-18T16:57:23.572Z,19.50
2023-03-18T16:59:55.813Z,17.90
2023-03-18T17:02:33.129Z,18.20
2023-03-18T17:05:02.002Z,16.33
2023-03-18T17:07:30.632Z,17.77
2023-03-18T17:09:58.661Z,18.90
2023-03-18T17:12:27.240Z,16.70
2023-03-18T17:14:58.354Z,14.87
2023-03-18T17:17:29.722Z,14.70
2023-03-18T17:20:00.481Z,16.90
2023-03-18T17:22:30.638Z,14.27
2023-03-18T17:25:00.103Z,15.20
2023-03-18T17:27:32.667Z,15.37
2023-03-18T17:30:02.411Z,16.00
2023-03-18T17:32:30.521Z,14.23
2023-03-18T17:34:58.590Z,13.90
2023-03-18T17:37:26.642Z,13.80
2023-03-18T17:39:54.787Z,14.47
2023-03-18T17:42:30.108Z,14.60
2023-03-18T17:45:04.930Z,14.87
2023-03-18T17:47:33.266Z,15.23
2023-03-18T17:50:01.596Z,16.07
2023-03-18T17:52:29.739Z,17.27
2023-03-18T17:54:57.799Z,18.97
2023-03-18T17:57:26.982Z,17.87
2023-03-18T17:59:55.286Z,17.63
2023-03-18T18:02:25.260Z,17.13
2023-03-18T18:04:53.380Z,19.97
2023-03-18T18:07:23.591Z,18.20
2023-03-18T18:09:51.783Z,19.63
2023-03-18T18:12:25.252Z,21.07
2023-03-18T18:14:53.568Z,21.13
2023-03-18T18:17:21.849Z,20.20
2023-03-18T18:19:51.283Z,21.17
2023-03-18T18:22:21.960Z,22.90
2023-03-18T18:24:52.165Z,23.00
2023-03-18T18:27:20.542Z,22.50
2023-03-18T18:29:48.963Z,22.37
2023-03-18T18:32:17.015Z,21.40
2023-03-18T18:34:45.353Z,21.47
2023-03-18T18:37:14.891Z,20.70
2023-03-18T18:39:43.598Z,20.27
2023-03-18T18:42:12.366Z,20.93
2023-03-18T18:44:40.419Z,20.57
2023-03-18T18:47:18.834Z,20.67
2023-03-18T18:49:47.561Z,20.47
2023-03-18T18:52:17.042Z,21.17
2023-03-18T18:54:45.114Z,19.77
2023-03-18T18:57:25.273Z,20.50
2023-03-18T18:59:53.383Z,20.03
2023-03-18T19:02:30.533Z,16.00
2023-03-18T19:04:59.933Z,18.27
2023-03-18T19:07:30.299Z,18.20
2023-03-18T19:09:58.369Z,15.37
2023-03-18T19:12:27.543Z,16.77
2023-03-18T19:14:55.924Z,15.27
2023-03-18T19:17:24.320Z,15.27
2023-03-18T19:19:53.727Z,14.17
2023-03-18T19:22:22.647Z,13.77
2023-03-18T19:24:52.768Z,13.23
2023-03-18T19:27:24.728Z,12.40
2023-03-18T19:29:54.504Z,12.20
2023-03-18T19:32:24.520Z,12.37
2023-03-18T19:34:54.234Z,12.20
2023-03-18T19:37:27.298Z,12.10
2023-03-18T19:39:57.496Z,13.37
2023-03-18T19:42:26.032Z,12.07
2023-03-18T19:44:54.384Z,14.67
2023-03-18T19:47:25.834Z,15.33
2023-03-18T19:49:57.042Z,16.13
2023-03-18T19:52:27.212Z,16.10
2023-03-18T19:54:57.603Z,17.10
2023-03-18T19:57:27.678Z,17.47
2023-03-18T19:59:58.249Z,22.30
2023-03-18T20:02:28.676Z,20.13
2023-03-18T20:04:59.333Z,21.40
2023-03-18T20:07:29.971Z,21.33
2023-03-18T20:09:59.558Z,20.37
2023-03-18T20:12:32.706Z,19.93
2023-03-18T20:15:00.956Z,20.17
2023-03-18T20:17:37.380Z,18.33
2023-03-18T20:20:07.319Z,17.90
2023-03-18T20:22:38.279Z,18.47
2023-03-18T20:25:16.910Z,17.97
2023-03-18T20:27:45.477Z,16.80
2023-03-18T20:30:33.391Z,22.07
2023-03-18T20:33:04.203Z,20.00
2023-03-18T20:35:35.043Z,20.13
2023-03-18T20:38:11.063Z,18.13
2023-03-18T20:40:41.232Z,17.23
2023-03-18T20:43:18.511Z,15.43
2023-03-18T20:45:46.833Z,15.90
2023-03-18T20:48:15.118Z,15.23
2023-03-18T20:50:43.276Z,17.40
2023-03-18T20:53:17.304Z,15.53
2023-03-18T20:55:47.464Z,16.07
2023-03-18T20:58:17.031Z,16.77
2023-03-18T21:00:46.637Z,17.00
2023-03-18T21:03:25.716Z,17.10
2023-03-18T21:05:56.157Z,15.63
2023-03-18T21:08:28.941Z,15.70
2023-03-18T21:11:01.880Z,16.07
2023-03-18T21:13:32.706Z,17.10
2023-03-18T21:16:01.989Z,16.97
2023-03-18T21:18:30.718Z,17.70
2023-03-18T21:20:59.032Z,16.97
2023-03-18T21:23:29.247Z,17.77
2023-03-18T21:25:59.218Z,17.50
2023-03-18T21:28:30.100Z,19.20
2023-03-18T21:30:59.136Z,19.10
2023-03-18T21:33:28.678Z,19.47
2023-03-18T21:35:57.699Z,19.00
2023-03-18T21:38:27.203Z,17.90
2023-03-18T21:40:55.997Z,18.43
2023-03-18T21:43:29.961Z,17.47
2023-03-18T21:45:58.151Z,17.77
2023-03-18T21:48:26.408Z,16.73
2023-03-18T21:50:55.699Z,17.60
2023-03-18T21:53:25.354Z,18.60
2023-03-18T21:55:54.558Z,17.33
2023-03-18T21:58:24.758Z,17.97
2023-03-18T22:00:56.072Z,17.17
2023-03-18T22:03:28.511Z,16.97
2023-03-18T22:05:59.362Z,17.43
2023-03-18T22:08:27.396Z,17.07
2023-03-18T22:10:55.528Z,17.53
2023-03-18T22:13:24.936Z,17.90
2023-03-18T22:15:55.397Z,18.07
2023-03-18T22:18:24.294Z,17.53
2023-03-18T22:20:52.921Z,17.80
2023-03-18T22:23:23.393Z,18.47
2023-03-18T22:25:53.268Z,17.67
2023-03-18T22:28:21.911Z,18.63
2023-03-18T22:30:52.406Z,18.73
2023-03-18T22:33:26.515Z,17.57
2023-03-18T22:35:55.085Z,17.87
2023-03-18T22:38:24.600Z,17.13
2023-03-18T22:40:55.062Z,17.40
2023-03-18T22:43:31.840Z,17.50
2023-03-18T22:46:01.231Z,15.60
2023-03-18T22:48:31.076Z,16.83
2023-03-18T22:51:00.432Z,16.37
2023-03-18T22:53:31.618Z,16.30
2023-03-18T22:56:09.362Z,16.17
2023-03-18T22:58:38.262Z,16.03
2023-03-18T23:01:07.920Z,15.73
2023-03-18T23:03:40.332Z,15.10
2023-03-18T23:06:09.345Z,15.17
2023-03-18T23:08:37.522Z,14.43
2023-03-18T23:11:05.728Z,14.43
2023-03-18T23:13:37.309Z,14.60
2023-03-18T23:16:06.742Z,13.93
2023-03-18T23:18:34.901Z,14.57
2023-03-18T23:21:05.377Z,14.40
2023-03-18T23:23:33.498Z,14.57
2023-03-18T23:26:01.898Z,14.90
2023-03-18T23:28:29.960Z,12.43
2023-03-18T23:30:58.077Z,11.57
2023-03-18T23:33:26.173Z,12.70
2023-03-18T23:35:54.197Z,11.67
2023-03-18T23:38:23.611Z,11.47
2023-03-18T23:40:51.856Z,10.67
2023-03-18T23:43:21.781Z,12.63
2023-03-18T23:45:49.947Z,12.47
2023-03-18T23:48:18.123Z,12.70
2023-03-18T23:50:47.229Z,13.47
2023-03-18T23:53:16.256Z,13.17
2023-03-18T23:55:46.104Z,12.43
2023-03-18T23:58:14.364Z,13.57
